Time,TemperatureF,DewpointF,PressureIn,WindDirection,WindDirectionDegrees,WindSpeedMPH,WindSpeedGustMPH,Humidity,HourlyPrecipIn,Conditions,Clouds,dailyrainin,SoftwareType,DateUTC
2013-08-05 00:02:00,62.0,42.0,30.34,South,183,1.0,2.0,47,0.00,,,0.01,,2013-08-05 06:02:00,
2013-08-05 00:12:00,62.0,42.0,30.34,South,183,1.0,2.0,47,0.00,,,0.01,,2013-08-05 06:12:00,
2013-08-05 00:22:00,63.0,43.0,30.34,WSW,243,4.0,11.0,48,0.00,,,0.01,,2013-08-05 06:22:00,
2013-08-05 00:32:00,64.0,43.0,30.33,SSW,213,5.0,13.0,47,0.00,,,0.01,,2013-08-05 06:32:00,
2013-08-05 00:42:00,64.0,43.0,30.33,SSW,213,5.0,13.0,47,0.00,,,0.01,,2013-08-05 06:42:00,
2013-08-05 00:52:00,63.0,43.0,30.33,South,179,3.0,7.0,48,0.00,,,0.01,,2013-08-05 06:52:00,
2013-08-05 01:02:00,62.0,43.0,30.32,SSW,198,3.0,7.0,49,0.00,,,0.01,,2013-08-05 07:02:00,
2013-08-05 01:12:00,62.0,43.0,30.32,SSW,198,3.0,7.0,49,0.00,,,0.01,,2013-08-05 07:12:00,
2013-08-05 01:22:00,61.0,42.0,30.32,WSW,248,3.0,6.0,50,0.00,,,0.01,,2013-08-05 07:22:00,
2013-08-05 01:32:00,61.0,43.0,30.32,WSW,246,3.0,6.0,51,0.00,,,0.01,,2013-08-05 07:32:00,
2013-08-05 01:43:00,61.0,43.0,30.32,WSW,246,3.0,6.0,51,0.00,,,0.01,,2013-08-05 07:43:00,
2013-08-05 01:53:00,61.0,43.0,30.32,SW,223,3.0,10.0,51,0.00,,,0.01,,2013-08-05 07:53:00,
2013-08-05 02:02:00,62.0,43.0,30.33,SSW,213,3.0,10.0,49,0.00,,,0.01,,2013-08-05 08:02:00,
2013-08-05 02:12:00,62.0,43.0,30.33,SSW,213,3.0,10.0,49,0.00,,,0.01,,2013-08-05 08:12:00,
2013-08-05 02:22:00,61.0,43.0,30.32,SW,225,3.0,6.0,51,0.00,,,0.01,,2013-08-05 08:22:00,
2013-08-05 02:34:00,62.0,43.0,30.32,SSW,213,3.0,7.0,50,0.00,,,0.01,,2013-08-05 08:34:00,
2013-08-05 02:47:00,62.0,43.0,30.32,SSW,213,3.0,7.0,50,0.00,,,0.01,,2013-08-05 08:47:00,
2013-08-05 02:54:00,63.0,43.0,30.32,SW,217,10.0,14.0,48,0.00,,,0.01,,2013-08-05 08:54:00,
2013-08-05 03:06:00,64.0,42.0,30.32,SSW,209,12.0,17.0,45,0.00,,,0.01,,2013-08-05 09:06:00,
2013-08-05 03:25:00,63.0,42.0,30.32,SW,218,8.0,17.0,46,0.00,,,0.01,,2013-08-05 09:25:00,
2013-08-05 03:46:00,63.0,42.0,30.31,SSW,210,9.0,13.0,47,0.00,,,0.01,,2013-08-05 09:46:00,
2013-08-05 03:53:00,63.0,42.0,30.32,SW,232,5.0,13.0,47,0.00,,,0.01,,2013-08-05 09:53:00,
2013-08-05 04:06:00,62.0,42.0,30.32,West,277,2.0,10.0,48,0.00,,,0.01,,2013-08-05 10:06:00,
2013-08-05 04:25:00,62.0,43.0,30.31,West,265,2.0,10.0,49,0.00,,,0.01,,2013-08-05 10:25:00,
2013-08-05 04:32:00,62.0,42.0,30.33,West,271,7.0,13.0,47,0.00,,,0.01,,2013-08-05 10:32:00,
2013-08-05 04:46:00,62.0,42.0,30.33,West,271,7.0,13.0,47,0.00,,,0.01,,2013-08-05 10:46:00,
2013-08-05 04:53:00,62.0,42.0,30.31,WSW,250,8.0,14.0,47,0.00,,,0.01,,2013-08-05 10:53:00,
2013-08-05 05:06:00,63.0,42.0,30.33,WSW,254,10.0,15.0,46,0.00,,,0.01,,2013-08-05 11:06:00,
2013-08-05 05:14:00,63.0,42.0,30.33,WSW,254,10.0,15.0,46,0.00,,,0.01,,2013-08-05 11:14:00,
2013-08-05 05:25:00,62.0,42.0,30.33,SW,234,9.0,16.0,47,0.00,,,0.01,,2013-08-05 11:25:00,
2013-08-05 05:34:00,61.0,41.0,30.32,WSW,252,11.0,16.0,48,0.00,,,0.01,,2013-08-05 11:34:00,
2013-08-05 05:47:00,61.0,41.0,30.32,WSW,252,11.0,16.0,48,0.00,,,0.01,,2013-08-05 11:47:00,
2013-08-05 05:58:00,61.0,41.0,30.32,West,260,9.0,16.0,48,0.00,,,0.01,,2013-08-05 11:58:00,
2013-08-05 06:06:00,61.0,42.0,30.32,WSW,251,10.0,14.0,49,0.00,,,0.01,,2013-08-05 12:06:00,
2013-08-05 06:26:00,61.0,42.0,30.32,West,259,5.0,16.0,49,0.00,,,0.01,,2013-08-05 12:26:00,
2013-08-05 06:33:00,61.0,42.0,30.32,SW,230,11.0,15.0,49,0.00,,,0.01,,2013-08-05 12:33:00,
2013-08-05 06:46:00,61.0,42.0,30.32,SW,230,11.0,15.0,49,0.00,,,0.01,,2013-08-05 12:46:00,
2013-08-05 06:59:00,61.0,42.0,30.32,WSW,250,1.0,15.0,49,0.00,,,0.01,,2013-08-05 12:59:00,
2013-08-05 07:13:00,61.0,42.0,30.33,WSW,251,12.0,16.0,49,0.00,,,0.01,,2013-08-05 13:13:00,
2013-08-05 07:35:00,63.0,44.0,30.35,West,273,6.0,11.0,49,0.00,,,0.01,,2013-08-05 13:35:00,
2013-08-05 07:42:00,63.0,44.0,30.35,West,273,6.0,11.0,49,0.00,,,0.01,,2013-08-05 13:42:00,
2013-08-05 08:45:00,66.0,43.0,30.36,SSW,204,2.0,7.0,43,0.00,,,0.01,,2013-08-05 14:45:00,
2013-08-05 09:13:00,65.0,44.0,30.38,SSW,199,3.0,6.0,46,0.00,,,0.01,,2013-08-05 15:13:00,
2013-08-05 09:24:00,64.0,44.0,30.37,South,184,8.0,11.0,48,0.00,,,0.01,,2013-08-05 15:24:00,
2013-08-05 09:45:00,64.0,43.0,30.37,South,187,11.0,15.0,47,0.00,,,0.01,,2013-08-05 15:45:00,
2013-08-05 09:58:00,66.0,44.0,30.37,SW,215,11.0,16.0,45,0.00,,,0.01,,2013-08-05 15:58:00,
2013-08-05 10:05:00,67.0,45.0,30.37,South,177,9.0,12.0,45,0.00,,,0.01,,2013-08-05 16:05:00,
2013-08-05 10:15:00,67.0,45.0,30.37,South,177,9.0,12.0,45,0.00,,,0.01,,2013-08-05 16:15:00,
2013-08-05 10:24:00,69.0,44.0,30.36,SW,230,9.0,16.0,40,0.00,,,0.01,,2013-08-05 16:24:00,
2013-08-05 10:33:00,69.0,44.0,30.35,SW,217,10.0,15.0,41,0.00,,,0.01,,2013-08-05 16:33:00,
2013-08-05 10:45:00,69.0,44.0,30.35,SW,217,10.0,15.0,41,0.00,,,0.01,,2013-08-05 16:45:00,
2013-08-05 10:59:00,71.0,45.0,30.37,SSW,200,8.0,16.0,39,0.00,,,0.01,,2013-08-05 16:59:00,
2013-08-05 11:22:00,74.0,46.0,30.35,WSW,240,10.0,17.0,37,0.00,,,0.01,,2013-08-05 17:22:00,
2013-08-05 11:34:00,74.0,45.0,30.35,SSW,211,8.0,18.0,36,0.00,,,0.01,,2013-08-05 17:34:00,
2013-08-05 12:06:00,75.0,46.0,30.33,South,185,6.0,18.0,36,0.00,,,0.01,,2013-08-05 18:06:00,
2013-08-05 12:13:00,75.0,46.0,30.33,South,185,6.0,18.0,36,0.00,,,0.01,,2013-08-05 18:13:00,
2013-08-05 12:34:00,78.0,42.0,30.33,NW,320,6.0,15.0,28,0.00,,,0.01,,2013-08-05 18:34:00,
2013-08-05 12:44:00,78.0,42.0,30.33,NW,320,6.0,15.0,28,0.00,,,0.01,,2013-08-05 18:44:00,
2013-08-05 12:54:00,76.0,41.0,30.32,NW,313,3.0,14.0,29,0.00,,,0.01,,2013-08-05 18:54:00,
2013-08-05 13:05:00,77.0,40.0,30.32,WNW,303,5.0,10.0,27,0.00,,,0.01,,2013-08-05 19:05:00,
2013-08-05 13:14:00,77.0,40.0,30.32,WNW,303,5.0,10.0,27,0.00,,,0.01,,2013-08-05 19:14:00,
2013-08-05 13:26:00,73.0,44.0,30.33,NW,325,0.0,14.0,36,0.00,,,0.01,,2013-08-05 19:26:00,
2013-08-05 15:33:00,70.0,47.0,30.32,ENE,60,0.0,0.0,44,0.00,,,0.17,,2013-08-05 21:33:00,
2013-08-05 15:45:00,70.0,47.0,30.32,ENE,60,0.0,0.0,44,0.00,,,0.17,,2013-08-05 21:45:00,
2013-08-05 15:53:00,71.0,45.0,30.32,WNW,295,0.0,0.0,39,0.00,,,0.17,,2013-08-05 21:53:00,
2013-08-05 16:35:00,70.0,45.0,30.29,ENE,57,0.0,1.0,40,0.00,,,0.17,,2013-08-05 22:35:00,
2013-08-05 16:43:00,70.0,45.0,30.29,ENE,57,0.0,1.0,40,0.00,,,0.17,,2013-08-05 22:43:00,
2013-08-05 16:53:00,70.0,46.0,30.30,ENE,57,0.0,1.0,42,0.00,,,0.17,,2013-08-05 22:53:00,
2013-08-05 17:25:00,68.0,41.0,30.33,SSW,200,0.0,11.0,37,0.00,,,0.17,,2013-08-05 23:25:00,
2013-08-05 17:46:00,62.0,42.0,30.38,SSW,213,1.0,16.0,48,0.01,,,0.17,,2013-08-05 23:46:00,
2013-08-05 18:34:00,59.0,47.0,30.34,SSW,199,8.0,17.0,64,0.03,,,0.20,,2013-08-06 00:34:00,
2013-08-05 18:45:00,59.0,47.0,30.34,SSW,199,8.0,17.0,64,0.03,,,0.20,,2013-08-06 00:45:00,
2013-08-05 19:25:00,56.0,47.0,30.31,SSW,194,18.0,24.0,73,0.01,,,0.21,,2013-08-06 01:25:00,
2013-08-05 19:36:00,57.0,47.0,30.30,SSW,200,18.0,35.0,69,0.01,,,0.21,,2013-08-06 01:36:00,
2013-08-05 19:47:00,57.0,47.0,30.30,SSW,200,18.0,35.0,69,0.01,,,0.21,,2013-08-06 01:47:00,
2013-08-05 20:00:00,56.0,48.0,30.30,SSW,200,13.0,23.0,75,0.00,,,0.21,,2013-08-06 02:00:00,
2013-08-05 20:25:00,56.0,48.0,30.28,SSW,211,13.0,21.0,74,0.00,,,0.21,,2013-08-06 02:25:00,
2013-08-05 20:32:00,56.0,48.0,30.29,SW,229,7.0,15.0,74,0.00,,,0.21,,2013-08-06 02:32:00,
2013-08-05 20:45:00,56.0,48.0,30.29,SW,229,7.0,15.0,74,0.00,,,0.21,,2013-08-06 02:45:00,
2013-08-05 20:52:00,56.0,46.0,30.28,WSW,250,9.0,17.0,68,0.00,,,0.21,,2013-08-06 02:52:00,
2013-08-05 21:25:00,57.0,46.0,30.29,SW,236,8.0,12.0,66,0.00,,,0.21,,2013-08-06 03:25:00,
2013-08-05 21:35:00,56.0,45.0,30.31,SW,234,7.0,16.0,67,0.00,,,0.21,,2013-08-06 03:35:00,
2013-08-05 21:45:00,56.0,45.0,30.31,SW,234,7.0,16.0,67,0.00,,,0.21,,2013-08-06 03:45:00,
2013-08-05 21:52:00,56.0,45.0,30.30,WSW,245,11.0,16.0,67,0.00,,,0.21,,2013-08-06 03:52:00,
2013-08-05 22:22:00,55.0,45.0,30.30,West,273,9.0,16.0,70,0.00,,,0.21,,2013-08-06 04:22:00,
2013-08-05 22:33:00,55.0,45.0,30.30,West,269,12.0,18.0,70,0.00,,,0.21,,2013-08-06 04:33:00,
2013-08-05 22:44:00,55.0,45.0,30.30,West,269,12.0,18.0,70,0.00,,,0.21,,2013-08-06 04:44:00,
2013-08-05 22:53:00,55.0,45.0,30.29,WSW,249,12.0,17.0,70,0.00,,,0.21,,2013-08-06 04:53:00,
2013-08-05 23:22:00,56.0,46.0,30.29,WSW,253,15.0,20.0,69,0.00,,,0.21,,2013-08-06 05:22:00,
2013-08-05 23:32:00,56.0,46.0,30.29,WSW,257,14.0,19.0,69,0.00,,,0.21,,2013-08-06 05:32:00,
2013-08-05 23:43:00,56.0,46.0,30.29,WSW,257,14.0,19.0,69,0.00,,,0.21,,2013-08-06 05:43:00,
2013-08-05 23:53:00,56.0,46.0,30.29,SW,226,10.0,16.0,69,0.00,,,0.21,,2013-08-06 05:53:00,